createdAt,value
2022-08-04T00:00:31.301Z,5.00
2022-08-04T00:01:53.701Z,5.87
2022-08-04T00:03:12.189Z,4.90
2022-08-04T00:04:22.309Z,4.90
2022-08-04T00:05:43.532Z,5.40
2022-08-04T00:06:51.053Z,5.70
2022-08-04T00:08:14.322Z,6.17
2022-08-04T00:09:38.798Z,5.13
2022-08-04T00:10:44.480Z,5.60
2022-08-04T00:11:49.257Z,6.00
2022-08-04T00:12:54.805Z,6.60
2022-08-04T00:14:06.494Z,5.97
2022-08-04T00:15:15.083Z,6.50
2022-08-04T00:16:19.014Z,5.90
2022-08-04T00:17:36.891Z,6.10
2022-08-04T00:19:00.178Z,5.67
2022-08-04T00:20:04.717Z,5.40
2022-08-04T00:21:10.033Z,5.40
2022-08-04T00:22:22.037Z,5.70
2022-08-04T00:23:26.475Z,5.37
2022-08-04T00:24:31.419Z,5.47
2022-08-04T00:25:33.541Z,6.13
2022-08-04T00:26:35.500Z,6.10
2022-08-04T00:27:38.185Z,5.27
2022-08-04T00:28:40.261Z,4.77
2022-08-04T00:29:42.321Z,5.63
2022-08-04T00:30:44.086Z,4.87
2022-08-04T00:31:56.814Z,5.63
2022-08-04T00:33:00.713Z,5.10
2022-08-04T00:34:04.445Z,5.40
2022-08-04T00:35:09.582Z,6.30
2022-08-04T00:36:12.506Z,5.30
2022-08-04T00:37:15.133Z,5.50
2022-08-04T00:38:18.428Z,5.10
2022-08-04T00:39:21.176Z,4.97
2022-08-04T00:40:25.082Z,5.10
2022-08-04T00:41:56.395Z,5.20
2022-08-04T00:43:17.752Z,5.40
2022-08-04T00:44:31.339Z,5.37
2022-08-04T00:46:15.852Z,5.00
2022-08-04T00:47:22.998Z,5.80
2022-08-04T00:49:02.196Z,5.60
2022-08-04T00:50:11.229Z,5.77
2022-08-04T00:51:45.421Z,5.63
2022-08-04T00:52:46.979Z,6.10
2022-08-04T00:54:07.382Z,5.63
2022-08-04T00:55:36.658Z,5.13
2022-08-04T00:57:29.947Z,6.13
2022-08-04T00:58:47.927Z,4.83
2022-08-04T01:00:16.045Z,5.50
2022-08-04T01:01:43.724Z,5.87
2022-08-04T01:02:57.453Z,5.10
2022-08-04T01:04:10.973Z,5.70
2022-08-04T01:05:29.869Z,5.27
2022-08-04T01:06:57.348Z,5.07
2022-08-04T01:08:04.473Z,5.07
2022-08-04T01:09:45.432Z,5.50
2022-08-04T01:10:55.705Z,4.87
2022-08-04T01:12:04.918Z,4.80
2022-08-04T01:13:40.608Z,5.37
2022-08-04T01:14:55.331Z,5.20
2022-08-04T01:16:18.117Z,4.80
2022-08-04T01:17:35.752Z,5.60
2022-08-04T01:18:52.235Z,4.70
2022-08-04T01:20:03.929Z,4.83
2022-08-04T01:21:11.643Z,5.40
2022-08-04T01:22:31.405Z,5.13
2022-08-04T01:23:54.057Z,5.83
2022-08-04T01:25:11.825Z,5.80
2022-08-04T01:26:43.940Z,5.33
2022-08-04T01:28:19.582Z,5.83
2022-08-04T01:29:24.340Z,5.40
2022-08-04T01:30:33.365Z,5.10
2022-08-04T01:31:52.884Z,5.90
2022-08-04T01:33:04.397Z,4.90
2022-08-04T01:34:09.977Z,5.50
2022-08-04T01:35:22.122Z,6.27
2022-08-04T01:37:03.131Z,5.80
2022-08-04T01:38:30.772Z,5.40
2022-08-04T01:39:47.246Z,5.13
2022-08-04T01:40:53.166Z,5.60
2022-08-04T01:41:57.935Z,5.40
2022-08-04T01:43:01.789Z,6.47
2022-08-04T01:44:05.835Z,6.00
2022-08-04T01:45:09.789Z,6.57
2022-08-04T01:46:16.885Z,6.97
2022-08-04T01:47:21.746Z,6.97
2022-08-04T01:48:25.620Z,6.30
2022-08-04T01:49:32.173Z,6.73
2022-08-04T01:50:44.492Z,6.57
2022-08-04T01:51:49.727Z,6.60
2022-08-04T01:52:55.445Z,6.20
2022-08-04T01:53:57.319Z,6.77
2022-08-04T01:55:01.206Z,6.60
2022-08-04T01:56:04.661Z,6.30
2022-08-04T01:57:38.879Z,6.80
2022-08-04T01:58:31.580Z,6.40
2022-08-04T01:59:35.758Z,6.80
2022-08-04T02:00:41.449Z,6.90
2022-08-04T02:01:43.220Z,6.03
2022-08-04T02:02:46.386Z,5.60
2022-08-04T02:04:20.034Z,6.07
2022-08-04T02:05:17.781Z,5.53
2022-08-04T02:06:40.765Z,6.33
2022-08-04T02:08:08.093Z,6.27
2022-08-04T02:09:26.404Z,6.57
2022-08-04T02:10:35.683Z,5.70
2022-08-04T02:11:40.648Z,5.70
2022-08-04T02:12:51.338Z,6.07
2022-08-04T02:14:06.392Z,5.77
2022-08-04T02:15:24.624Z,5.70
2022-08-04T02:16:52.406Z,6.33
2022-08-04T02:18:30.910Z,6.40
2022-08-04T02:19:35.849Z,5.50
2022-08-04T02:20:45.959Z,6.20
2022-08-04T02:21:55.728Z,6.03
2022-08-04T02:23:05.117Z,6.30
2022-08-04T02:24:08.825Z,5.57
2022-08-04T02:25:11.826Z,5.90
2022-08-04T02:26:33.811Z,5.53
2022-08-04T02:27:59.780Z,5.93
2022-08-04T02:29:16.875Z,5.67
2022-08-04T02:30:19.721Z,5.70
2022-08-04T02:31:32.261Z,5.97
2022-08-04T02:32:39.845Z,6.10
2022-08-04T02:33:52.593Z,6.23
2022-08-04T02:35:15.849Z,5.33
2022-08-04T02:36:24.384Z,5.47
2022-08-04T02:37:26.845Z,5.67
2022-08-04T02:38:48.827Z,5.17
2022-08-04T02:39:53.109Z,5.10
2022-08-04T02:40:59.241Z,5.07
2022-08-04T02:42:04.290Z,4.80
2022-08-04T02:43:08.199Z,5.20
2022-08-04T02:44:10.848Z,4.37
2022-08-04T02:45:13.179Z,5.10
2022-08-04T02:46:18.678Z,5.40
2022-08-04T02:47:22.423Z,4.50
2022-08-04T02:48:31.293Z,5.33
2022-08-04T02:49:36.920Z,4.87
2022-08-04T02:50:44.439Z,4.73
2022-08-04T02:51:50.307Z,4.90
2022-08-04T02:52:53.271Z,4.73
2022-08-04T02:53:58.341Z,5.10
2022-08-04T02:55:02.902Z,5.00
2022-08-04T02:56:08.739Z,4.50
2022-08-04T02:57:12.951Z,4.57
2022-08-04T02:58:20.615Z,4.80
2022-08-04T02:59:26.712Z,4.67
2022-08-04T03:00:29.009Z,4.70
2022-08-04T03:01:32.035Z,4.90
2022-08-04T03:03:06.153Z,4.60
2022-08-04T03:04:26.093Z,4.90
2022-08-04T03:06:01.391Z,5.37
2022-08-04T03:07:26.333Z,5.47
2022-08-04T03:08:44.842Z,5.23
2022-08-04T03:10:15.711Z,5.30
2022-08-04T03:11:34.753Z,6.10
2022-08-04T03:13:08.655Z,5.20
2022-08-04T03:15:07.388Z,4.63
2022-08-04T03:16:36.687Z,5.10
2022-08-04T03:18:01.543Z,5.30
2022-08-04T03:19:17.297Z,5.07
2022-08-04T03:20:27.510Z,5.07
2022-08-04T03:21:55.659Z,5.57
2022-08-04T03:23:15.721Z,5.17
2022-08-04T03:24:20.187Z,6.00
2022-08-04T03:25:57.783Z,5.30
2022-08-04T03:27:24.090Z,5.80
2022-08-04T03:29:00.570Z,5.10
2022-08-04T03:30:10.696Z,5.40
2022-08-04T03:31:59.781Z,5.30
2022-08-04T03:33:48.529Z,5.83
2022-08-04T03:35:04.872Z,5.23
2022-08-04T03:36:37.996Z,5.50
2022-08-04T03:38:13.778Z,4.80
2022-08-04T03:39:28.461Z,5.90
2022-08-04T03:40:54.524Z,5.30
2022-08-04T03:42:18.009Z,5.40
2022-08-04T03:43:58.000Z,5.00
2022-08-04T03:45:23.989Z,5.83
2022-08-04T03:46:58.045Z,6.10
2022-08-04T03:48:23.546Z,6.20
2022-08-04T03:49:37.109Z,6.07
2022-08-04T03:50:45.121Z,5.80
2022-08-04T03:52:33.507Z,6.40
2022-08-04T03:53:53.439Z,6.00
2022-08-04T03:55:07.593Z,6.40
2022-08-04T03:56:30.004Z,6.10
2022-08-04T03:57:59.448Z,6.93
2022-08-04T03:59:07.696Z,6.80
2022-08-04T04:00:13.050Z,6.40
2022-08-04T04:01:27.013Z,6.37
2022-08-04T04:02:47.743Z,6.30
2022-08-04T04:04:01.973Z,6.40
2022-08-04T04:05:27.751Z,5.93
2022-08-04T04:06:41.698Z,5.80
2022-08-04T04:08:12.511Z,6.00
2022-08-04T04:09:52.330Z,6.43
2022-08-04T04:11:07.656Z,6.03
2022-08-04T04:12:24.125Z,5.87
2022-08-04T04:13:47.500Z,6.37
2022-08-04T04:14:53.277Z,6.40
2022-08-04T04:16:24.751Z,6.80
2022-08-04T04:18:13.114Z,6.87
2022-08-04T04:19:42.559Z,5.53
2022-08-04T04:21:09.088Z,5.93
2022-08-04T04:22:10.693Z,5.97
2022-08-04T04:23:22.832Z,5.70
2022-08-04T04:24:43.214Z,5.37
2022-08-04T04:25:47.607Z,5.80
2022-08-04T04:27:21.738Z,5.70
2022-08-04T04:28:46.056Z,6.30
2022-08-04T04:30:08.495Z,5.63
2022-08-04T04:31:39.603Z,6.13
2022-08-04T04:33:17.800Z,6.00
2022-08-04T04:34:53.460Z,6.20
2022-08-04T04:36:15.257Z,7.30
2022-08-04T04:37:31.804Z,6.17
2022-08-04T04:38:57.706Z,6.63
2022-08-04T04:40:24.117Z,7.47
2022-08-04T04:41:44.191Z,6.57
2022-08-04T04:43:18.995Z,6.93
2022-08-04T04:44:33.077Z,7.47
2022-08-04T04:46:06.665Z,6.60
2022-08-04T04:47:43.261Z,7.53
2022-08-04T04:49:47.027Z,6.70
2022-08-04T04:51:07.218Z,6.50
2022-08-04T04:52:22.155Z,6.93
2022-08-04T04:54:00.090Z,7.30
2022-08-04T04:55:31.234Z,6.77
2022-08-04T04:56:40.513Z,7.20
2022-08-04T04:57:53.791Z,7.63
2022-08-04T04:58:58.689Z,7.87
2022-08-04T05:00:09.850Z,7.60
2022-08-04T05:01:23.518Z,6.83
2022-08-04T05:03:15.618Z,6.60
2022-08-04T05:04:45.850Z,7.37
2022-08-04T05:05:56.377Z,6.80
2022-08-04T05:07:25.607Z,6.90
2022-08-04T05:08:48.230Z,7.40
2022-08-04T05:10:03.149Z,7.70
2022-08-04T05:11:28.912Z,7.10
2022-08-04T05:14:35.877Z,7.50
2022-08-04T05:14:49.978Z,6.83
2022-08-04T05:15:56.137Z,6.87
2022-08-04T05:17:06.097Z,7.80
2022-08-04T05:18:12.490Z,9.03
2022-08-04T05:19:39.924Z,17.07
2022-08-04T05:20:48.499Z,9.47
2022-08-04T05:21:56.727Z,9.43
2022-08-04T05:23:02.004Z,7.50
2022-08-04T05:24:08.089Z,6.87
2022-08-04T05:25:23.639Z,7.10
2022-08-04T05:26:35.308Z,7.30
2022-08-04T05:27:41.358Z,6.53
2022-08-04T05:28:53.313Z,6.90
2022-08-04T05:29:59.213Z,7.40
2022-08-04T05:31:23.074Z,6.97
2022-08-04T05:32:29.119Z,7.00
2022-08-04T05:33:41.210Z,7.03
2022-08-04T05:34:52.512Z,6.83
2022-08-04T05:36:18.503Z,6.50
2022-08-04T05:37:22.622Z,7.27
2022-08-04T05:38:29.702Z,6.80
2022-08-04T05:39:47.167Z,6.47
2022-08-04T05:40:50.237Z,6.80
2022-08-04T05:41:55.335Z,7.03
2022-08-04T05:43:00.639Z,7.27
2022-08-04T05:44:03.727Z,6.80
2022-08-04T05:45:08.615Z,6.43
2022-08-04T05:46:11.969Z,5.80
2022-08-04T05:47:15.424Z,6.10
2022-08-04T05:48:17.442Z,6.33
2022-08-04T05:49:21.231Z,6.47
2022-08-04T05:50:24.732Z,6.13
2022-08-04T05:51:28.262Z,6.00
2022-08-04T05:52:31.670Z,6.50
2022-08-04T05:53:34.576Z,6.80
2022-08-04T05:54:38.695Z,7.23
2022-08-04T05:55:48.994Z,6.20
2022-08-04T05:57:04.573Z,5.90
2022-08-04T05:58:07.492Z,5.53
2022-08-04T05:59:12.583Z,7.30
2022-08-04T06:00:38.970Z,6.40
2022-08-04T06:01:55.842Z,6.10
2022-08-04T06:02:59.796Z,6.40
2022-08-04T06:04:06.803Z,6.17
2022-08-04T06:05:15.441Z,5.70
2022-08-04T06:06:19.438Z,6.10
2022-08-04T06:07:21.336Z,5.60
2022-08-04T06:08:24.385Z,6.07
2022-08-04T06:09:26.176Z,5.60
2022-08-04T06:10:29.939Z,6.40
2022-08-04T06:12:01.982Z,5.80
2022-08-04T06:13:01.400Z,5.90
2022-08-04T06:14:07.050Z,5.93
2022-08-04T06:15:13.284Z,6.10
2022-08-04T06:16:28.618Z,5.83
2022-08-04T06:19:56.569Z,5.80
2022-08-04T06:20:03.435Z,5.60
2022-08-04T06:20:34.781Z,5.30
2022-08-04T06:21:39.943Z,5.87
2022-08-04T06:22:44.777Z,5.70
2022-08-04T06:23:53.567Z,5.47
2022-08-04T06:25:04.845Z,5.70
2022-08-04T06:26:09.082Z,5.27
2022-08-04T06:27:13.279Z,5.30
2022-08-04T06:28:16.565Z,5.50
2022-08-04T06:29:36.083Z,5.47
2022-08-04T06:30:40.276Z,5.60
2022-08-04T06:32:29.489Z,4.93
2022-08-04T06:33:27.084Z,4.70
2022-08-04T06:34:30.835Z,5.57
2022-08-04T06:35:33.803Z,5.50
2022-08-04T06:36:38.091Z,5.30
2022-08-04T06:37:41.847Z,5.27
2022-08-04T06:38:45.983Z,5.70
2022-08-04T06:39:48.080Z,6.07
2022-08-04T06:40:50.313Z,5.20
2022-08-04T06:42:02.528Z,5.30
2022-08-04T06:43:16.588Z,5.27
2022-08-04T06:44:22.368Z,5.10
2022-08-04T06:45:28.395Z,6.03
2022-08-04T06:46:31.208Z,7.30
2022-08-04T06:47:33.597Z,5.10
2022-08-04T06:48:35.908Z,6.20
2022-08-04T06:49:44.206Z,5.00
2022-08-04T06:51:24.364Z,5.20
2022-08-04T06:52:24.112Z,5.00
2022-08-04T06:53:27.084Z,5.07
2022-08-04T06:54:29.514Z,4.90
2022-08-04T06:55:33.220Z,4.80
2022-08-04T06:56:35.768Z,4.80
2022-08-04T06:57:39.027Z,5.27
2022-08-04T06:58:41.664Z,4.90
2022-08-04T06:59:50.223Z,4.87
2022-08-04T07:00:54.586Z,5.10
2022-08-04T07:01:57.126Z,4.73
2022-08-04T07:02:59.319Z,4.90
2022-08-04T07:04:01.311Z,5.10
2022-08-04T07:05:07.328Z,4.43
2022-08-04T07:06:14.173Z,4.57
2022-08-04T07:07:18.343Z,4.70
2022-08-04T07:08:21.505Z,4.43
2022-08-04T07:09:23.202Z,4.60
2022-08-04T07:10:27.970Z,4.40
2022-08-04T07:11:39.033Z,4.27
2022-08-04T07:12:46.483Z,5.13
2022-08-04T07:13:50.123Z,4.90
2022-08-04T07:14:52.129Z,4.80
2022-08-04T07:15:54.984Z,4.70
2022-08-04T07:16:58.340Z,5.27
2022-08-04T07:18:01.913Z,5.33
2022-08-04T07:19:10.390Z,4.53
2022-08-04T07:20:13.326Z,4.00
2022-08-04T07:21:21.795Z,4.53
2022-08-04T07:22:26.477Z,4.97
2022-08-04T07:23:28.446Z,4.70
2022-08-04T07:24:33.658Z,4.83
2022-08-04T07:26:00.237Z,4.60
2022-08-04T07:27:00.711Z,4.00
2022-08-04T07:28:02.343Z,5.10
2022-08-04T07:29:04.289Z,4.40
2022-08-04T07:30:06.669Z,4.83
2022-08-04T07:31:16.544Z,4.00
2022-08-04T07:32:34.480Z,4.40
2022-08-04T07:33:38.375Z,4.20
2022-08-04T07:34:41.597Z,4.73
2022-08-04T07:36:09.203Z,4.90
2022-08-04T07:37:13.003Z,4.33
2022-08-04T07:38:14.898Z,4.93
2022-08-04T07:39:27.534Z,4.70
2022-08-04T07:40:31.388Z,5.20
2022-08-04T07:41:36.705Z,4.50
2022-08-04T07:42:39.269Z,4.83
2022-08-04T07:43:41.565Z,5.10
2022-08-04T07:44:45.670Z,4.33
2022-08-04T07:45:47.488Z,4.37
2022-08-04T07:46:49.149Z,4.47
2022-08-04T07:48:04.987Z,3.90
2022-08-04T07:49:07.981Z,4.00
2022-08-04T07:50:11.108Z,4.30
2022-08-04T07:51:13.176Z,4.53
2022-08-04T07:52:16.067Z,4.07
2022-08-04T07:53:55.167Z,4.40
2022-08-04T07:54:41.585Z,3.60
2022-08-04T07:55:45.538Z,4.10
2022-08-04T07:56:49.341Z,3.57
2022-08-04T07:57:51.081Z,4.17
2022-08-04T07:58:52.772Z,3.73
2022-08-04T07:59:54.443Z,3.33
2022-08-04T08:00:56.770Z,3.50
2022-08-04T08:02:02.346Z,3.60
2022-08-04T08:03:04.842Z,4.20
2022-08-04T08:04:08.209Z,4.53
2022-08-04T08:05:13.251Z,3.20
2022-08-04T08:06:18.164Z,3.50
2022-08-04T08:07:34.626Z,3.20
2022-08-04T08:08:39.972Z,3.57
2022-08-04T08:09:41.662Z,3.83
2022-08-04T08:10:47.320Z,3.40
2022-08-04T08:12:38.227Z,5.17
2022-08-04T08:13:14.091Z,3.37
2022-08-04T08:14:17.549Z,3.77
2022-08-04T08:15:20.181Z,4.10
2022-08-04T08:16:23.524Z,3.40
2022-08-04T08:17:27.195Z,3.20
2022-08-04T08:18:30.114Z,3.47
2022-08-04T08:19:33.074Z,4.00
2022-08-04T08:20:35.121Z,3.13
2022-08-04T08:21:37.476Z,3.30
2022-08-04T08:23:01.588Z,3.63
2022-08-04T08:24:07.485Z,4.00
2022-08-04T08:25:14.615Z,3.77
2022-08-04T08:26:16.597Z,4.00
2022-08-04T08:27:19.185Z,3.07
2022-08-04T08:28:21.043Z,3.30
2022-08-04T08:29:24.105Z,3.60
2022-08-04T08:30:31.595Z,3.03
2022-08-04T08:31:57.750Z,3.60
2022-08-04T08:32:56.692Z,3.03
2022-08-04T08:33:59.238Z,3.60
2022-08-04T08:35:01.714Z,3.13
2022-08-04T08:36:06.738Z,3.47
2022-08-04T08:37:41.905Z,3.17
2022-08-04T08:39:01.426Z,3.17
2022-08-04T08:40:41.865Z,3.33
2022-08-04T08:41:55.354Z,3.30
2022-08-04T08:44:05.091Z,3.73
2022-08-04T08:45:12.239Z,3.50
2022-08-04T08:46:53.600Z,3.43
2022-08-04T08:48:39.283Z,2.70
2022-08-04T08:50:04.425Z,2.93
2022-08-04T08:51:18.115Z,3.07
2022-08-04T08:52:56.231Z,3.07
2022-08-04T08:54:15.857Z,2.70
2022-08-04T08:55:37.080Z,2.53
2022-08-04T08:57:20.240Z,3.53
2022-08-04T08:58:46.566Z,2.80
2022-08-04T09:00:00.658Z,2.70
2022-08-04T09:01:21.119Z,2.47
2022-08-04T09:03:04.594Z,2.53
2022-08-04T09:04:32.614Z,3.00
2022-08-04T09:05:46.713Z,2.77
2022-08-04T09:07:03.284Z,2.87
2022-08-04T09:08:26.098Z,2.83
2022-08-04T09:09:53.169Z,2.80
2022-08-04T09:11:02.790Z,2.47
2022-08-04T09:12:17.913Z,2.83
2022-08-04T09:14:00.703Z,2.40
2022-08-04T09:15:23.415Z,3.10
2022-08-04T09:16:40.712Z,2.73
2022-08-04T09:17:54.240Z,2.50
2022-08-04T09:19:01.897Z,2.23
2022-08-04T09:20:12.991Z,2.50
2022-08-04T09:21:44.721Z,2.60
2022-08-04T09:22:54.550Z,3.20
2022-08-04T09:24:36.680Z,2.53
2022-08-04T09:25:46.782Z,2.20
2022-08-04T09:26:59.917Z,2.63
2022-08-04T09:28:37.169Z,2.50
2022-08-04T09:30:05.081Z,2.47
2022-08-04T09:31:12.902Z,1.90
2022-08-04T09:32:39.424Z,2.40
2022-08-04T09:34:10.078Z,2.27
2022-08-04T09:35:21.010Z,1.80
2022-08-04T09:36:43.036Z,2.30
2022-08-04T09:38:22.432Z,2.30
2022-08-04T09:39:37.136Z,1.83
2022-08-04T09:40:53.176Z,2.43
2022-08-04T09:42:09.991Z,2.30
2022-08-04T09:44:43.073Z,1.90
2022-08-04T09:45:43.244Z,2.27
2022-08-04T09:46:59.703Z,2.40
2022-08-04T09:48:21.743Z,1.97
2022-08-04T09:49:38.476Z,2.40
2022-08-04T09:50:46.876Z,2.00
2022-08-04T09:51:57.957Z,2.10
2022-08-04T09:53:03.758Z,3.83
2022-08-04T09:54:30.735Z,2.67
2022-08-04T09:55:54.350Z,2.20
2022-08-04T09:57:26.799Z,1.70
2022-08-04T09:58:58.738Z,1.93
2022-08-04T10:00:05.519Z,2.00
2022-08-04T10:01:11.674Z,1.97
2022-08-04T10:02:17.103Z,2.03
2022-08-04T10:03:22.408Z,1.80
2022-08-04T10:04:26.013Z,2.20
2022-08-04T10:05:58.614Z,2.53
2022-08-04T10:07:18.516Z,2.60
2022-08-04T10:08:51.211Z,1.90
2022-08-04T10:10:17.461Z,2.00
2022-08-04T10:11:54.368Z,2.67
2022-08-04T10:13:37.698Z,2.30
2022-08-04T10:14:56.325Z,1.90
2022-08-04T10:16:15.539Z,2.00
2022-08-04T10:17:51.927Z,2.27
2022-08-04T10:19:11.970Z,2.27
2022-08-04T10:20:49.376Z,2.10
2022-08-04T10:22:29.203Z,1.80
2022-08-04T10:23:56.604Z,2.43
2022-08-04T10:26:02.803Z,2.03
2022-08-04T10:26:58.105Z,1.90
2022-08-04T10:28:10.996Z,1.77
2022-08-04T10:29:30.893Z,1.97
2022-08-04T10:30:35.631Z,1.83
2022-08-04T10:31:45.471Z,1.83
2022-08-04T10:32:52.166Z,2.30
2022-08-04T10:34:20.060Z,1.87
2022-08-04T10:35:24.584Z,2.10
2022-08-04T10:36:31.839Z,3.30
2022-08-04T10:38:00.419Z,2.47
2022-08-04T10:39:12.207Z,3.37
2022-08-04T10:40:42.997Z,1.70
2022-08-04T10:42:00.700Z,2.00
2022-08-04T10:43:29.388Z,2.10
2022-08-04T10:44:55.467Z,2.37
2022-08-04T10:46:05.573Z,2.13
2022-08-04T10:47:18.050Z,1.83
2022-08-04T10:48:34.167Z,2.07
2022-08-04T10:49:42.614Z,2.10
2022-08-04T10:51:09.734Z,2.07
2022-08-04T10:52:17.980Z,1.80
2022-08-04T10:53:22.824Z,1.93
2022-08-04T10:54:37.341Z,1.83
2022-08-04T10:56:07.976Z,2.03
2022-08-04T10:57:13.654Z,2.10
2022-08-04T10:58:22.395Z,1.90
2022-08-04T11:00:00.680Z,1.90
2022-08-04T11:01:12.629Z,1.80
2022-08-04T11:02:47.291Z,2.07
2022-08-04T11:03:56.541Z,1.90
2022-08-04T11:05:18.979Z,1.70
2022-08-04T11:06:21.620Z,2.03
2022-08-04T11:07:25.006Z,2.23
2022-08-04T11:08:37.215Z,1.80
2022-08-04T11:09:41.107Z,2.23
2022-08-04T11:11:03.495Z,1.90
2022-08-04T11:12:15.789Z,1.90
2022-08-04T11:13:22.222Z,1.60
2022-08-04T11:14:42.271Z,2.10
2022-08-04T11:15:52.926Z,8.93
2022-08-04T11:17:21.372Z,2.47
2022-08-04T11:18:32.261Z,1.90
2022-08-04T11:19:54.575Z,2.25
2022-08-04T11:21:15.708Z,1.60
2022-08-04T11:22:23.790Z,1.90
2022-08-04T11:23:31.900Z,2.22
2022-08-04T11:24:40.924Z,1.80
2022-08-04T11:26:05.999Z,1.70
2022-08-04T11:27:14.770Z,1.90
2022-08-04T11:28:33.267Z,2.30
2022-08-04T11:30:03.896Z,2.08
2022-08-04T11:31:12.503Z,2.10
2022-08-04T11:32:20.410Z,2.30
2022-08-04T11:33:35.244Z,1.92
2022-08-04T11:34:44.151Z,2.30
2022-08-04T11:36:03.940Z,1.85
2022-08-04T11:37:28.852Z,1.90
2022-08-04T11:38:58.279Z,1.80
2022-08-04T11:40:09.577Z,2.05
2022-08-04T11:41:19.825Z,2.08
2022-08-04T11:42:29.360Z,2.00
2022-08-04T11:43:56.183Z,1.80
2022-08-04T11:45:13.291Z,2.05
2022-08-04T11:46:24.805Z,1.83
2022-08-04T11:47:41.784Z,2.42
2022-08-04T11:48:56.427Z,2.33
2022-08-04T11:50:04.637Z,1.85
2022-08-04T11:51:09.457Z,2.38
2022-08-04T11:52:14.273Z,1.90
2022-08-04T11:53:23.501Z,1.88
2022-08-04T11:54:25.348Z,1.85
2022-08-04T11:55:28.843Z,1.60
2022-08-04T11:56:37.242Z,1.95
2022-08-04T11:57:40.518Z,1.50
2022-08-04T11:58:50.551Z,1.50
2022-08-04T12:00:10.626Z,1.63
2022-08-04T12:01:41.560Z,2.00
2022-08-04T12:02:52.165Z,1.75
2022-08-04T12:04:13.774Z,1.88
2022-08-04T12:05:35.389Z,1.88
2022-08-04T12:07:15.055Z,1.63
2022-08-04T12:08:47.846Z,1.80
2022-08-04T12:10:00.532Z,1.92
2022-08-04T12:11:26.014Z,2.00
2022-08-04T12:12:38.891Z,1.73
2022-08-04T12:14:00.731Z,1.80
2022-08-04T12:15:14.096Z,2.03
2022-08-04T12:16:24.395Z,1.60
2022-08-04T12:17:52.715Z,1.92
2022-08-04T12:18:58.982Z,1.63
2022-08-04T12:20:32.230Z,1.75
2022-08-04T12:21:44.213Z,2.10
2022-08-04T12:22:56.081Z,1.75
2022-08-04T12:24:20.793Z,1.92
2022-08-04T12:25:32.924Z,1.90
2022-08-04T12:26:43.540Z,2.15
2022-08-04T12:28:15.209Z,1.65
2022-08-04T12:29:19.929Z,1.50
2022-08-04T12:30:59.533Z,3.35
2022-08-04T12:31:50.172Z,1.48
2022-08-04T12:33:03.646Z,1.60
2022-08-04T12:34:14.634Z,1.88
2022-08-04T12:35:30.975Z,1.50
2022-08-04T12:37:06.816Z,1.70
2022-08-04T12:38:14.984Z,1.55
2022-08-04T12:39:19.043Z,2.13
2022-08-04T12:40:30.122Z,1.77
2022-08-04T12:41:39.698Z,1.85
2022-08-04T12:42:56.136Z,1.60
2022-08-04T12:44:07.464Z,1.27
2022-08-04T12:45:30.451Z,1.50
2022-08-04T12:46:33.235Z,1.52
2022-08-04T12:47:36.945Z,1.40
2022-08-04T12:48:40.053Z,1.70
2022-08-04T12:50:00.184Z,1.30
2022-08-04T12:51:03.682Z,1.35
2022-08-04T12:52:09.949Z,1.75
2022-08-04T12:53:19.443Z,1.67
2022-08-04T12:54:36.890Z,1.58
2022-08-04T12:55:44.986Z,1.60
2022-08-04T12:57:06.319Z,1.77
2022-08-04T12:58:16.211Z,1.17
2022-08-04T12:59:41.273Z,1.60
2022-08-04T13:00:44.658Z,1.40
2022-08-04T13:02:08.488Z,1.45
2022-08-04T13:03:16.752Z,1.40
2022-08-04T13:04:29.541Z,1.33
2022-08-04T13:05:33.234Z,1.48
2022-08-04T13:06:36.203Z,1.60
2022-08-04T13:07:46.228Z,1.45
2022-08-04T13:08:49.104Z,1.70
2022-08-04T13:09:52.286Z,1.50
2022-08-04T13:10:58.858Z,1.55
2022-08-04T13:12:16.267Z,1.42
2022-08-04T13:13:28.979Z,1.77
2022-08-04T13:14:37.796Z,1.40
2022-08-04T13:15:47.693Z,1.40
2022-08-04T13:17:01.284Z,1.63
2022-08-04T13:18:14.781Z,1.63
2022-08-04T13:19:17.688Z,1.75
2022-08-04T13:20:28.513Z,1.23
2022-08-04T13:21:49.825Z,1.50
2022-08-04T13:23:09.590Z,1.58
2022-08-04T13:24:22.881Z,1.90
2022-08-04T13:26:44.666Z,1.40
2022-08-04T13:27:09.063Z,1.65
2022-08-04T13:28:47.110Z,1.50
2022-08-04T13:29:59.838Z,1.70
2022-08-04T13:31:10.196Z,1.52
2022-08-04T13:32:17.639Z,1.40
2022-08-04T13:33:20.416Z,1.50
2022-08-04T13:34:23.393Z,1.52
2022-08-04T13:35:55.563Z,1.52
2022-08-04T13:36:50.360Z,1.67
2022-08-04T13:37:55.282Z,1.70
2022-08-04T13:39:07.500Z,1.77
2022-08-04T13:40:14.445Z,1.60
2022-08-04T13:41:18.014Z,1.70
2022-08-04T13:42:20.901Z,1.60
2022-08-04T13:44:15.860Z,1.60
2022-08-04T13:44:58.482Z,1.48
2022-08-04T13:46:06.148Z,1.60
2022-08-04T13:47:19.384Z,1.80
2022-08-04T13:48:32.311Z,1.20
2022-08-04T13:49:42.607Z,1.50
2022-08-04T13:51:05.183Z,1.92
2022-08-04T13:52:11.172Z,1.50
2022-08-04T13:53:17.891Z,1.48
2022-08-04T13:54:24.452Z,1.70
2022-08-04T13:55:35.427Z,1.70
2022-08-04T13:56:40.646Z,1.90
2022-08-04T13:57:45.462Z,1.60
2022-08-04T14:00:30.682Z,1.55
2022-08-04T14:01:47.424Z,1.40
2022-08-04T14:04:51.864Z,1.38
2022-08-04T14:06:10.091Z,1.70
2022-08-04T14:07:21.357Z,2.03
2022-08-04T14:08:33.322Z,2.05
2022-08-04T14:09:39.105Z,1.63
2022-08-04T14:10:53.341Z,1.83
2022-08-04T14:12:37.813Z,1.85
2022-08-04T14:13:41.014Z,1.88
2022-08-04T14:14:51.112Z,1.50
2022-08-04T14:16:03.787Z,1.90
2022-08-04T14:17:19.831Z,1.85
2022-08-04T14:18:30.456Z,1.67
2022-08-04T14:19:50.204Z,1.85
2022-08-04T14:21:05.285Z,1.90
2022-08-04T14:22:07.348Z,1.80
2022-08-04T14:23:33.490Z,1.40
2022-08-04T14:24:35.721Z,1.70
2022-08-04T14:25:37.877Z,1.50
2022-08-04T14:26:39.932Z,1.40
2022-08-04T14:27:52.015Z,1.67
2022-08-04T14:29:27.399Z,1.60
2022-08-04T14:30:36.990Z,1.42
2022-08-04T14:31:55.327Z,1.60
2022-08-04T14:34:01.837Z,1.60
2022-08-04T14:34:38.969Z,1.75
2022-08-04T14:35:55.943Z,1.90
2022-08-04T14:37:16.722Z,1.30
2022-08-04T14:39:07.886Z,1.60
2022-08-04T14:40:30.680Z,1.33
2022-08-04T14:41:46.055Z,1.80
2022-08-04T14:42:55.139Z,1.60
2022-08-04T14:44:03.800Z,1.98
2022-08-04T14:45:07.204Z,1.75
2022-08-04T14:46:10.763Z,2.70
2022-08-04T14:47:16.044Z,1.80
2022-08-04T14:48:21.343Z,1.50
2022-08-04T14:49:24.011Z,1.60
2022-08-04T14:50:46.727Z,1.58
2022-08-04T14:51:55.234Z,1.98
2022-08-04T14:53:07.502Z,1.90
2022-08-04T14:54:18.520Z,2.00
2022-08-04T14:55:22.619Z,1.70
2022-08-04T14:56:46.157Z,2.17
2022-08-04T14:58:34.496Z,1.38
2022-08-04T14:59:11.967Z,1.50
2022-08-04T15:00:29.211Z,2.35
2022-08-04T15:01:32.170Z,3.58
2022-08-04T15:02:36.331Z,2.17
2022-08-04T15:03:50.616Z,1.40
2022-08-04T15:04:54.655Z,1.40
2022-08-04T15:06:06.630Z,1.55
2022-08-04T15:07:20.862Z,1.83
2022-08-04T15:08:23.626Z,10.57
2022-08-04T15:09:32.130Z,3.45
2022-08-04T15:10:35.212Z,2.47
2022-08-04T15:11:43.148Z,1.58
2022-08-04T15:12:45.770Z,1.90
2022-08-04T15:13:48.327Z,1.80
2022-08-04T15:14:50.565Z,1.55
2022-08-04T15:16:06.418Z,1.60
2022-08-04T15:17:28.822Z,1.70
2022-08-04T15:18:32.089Z,1.52
2022-08-04T15:19:34.838Z,1.35
2022-08-04T15:20:39.069Z,1.48
2022-08-04T15:21:41.803Z,8.15
2022-08-04T15:22:44.106Z,2.55
2022-08-04T15:23:46.768Z,1.45
2022-08-04T15:24:54.989Z,1.67
2022-08-04T15:26:02.545Z,1.38
2022-08-04T15:27:05.726Z,1.70
2022-08-04T15:29:59.297Z,1.58
2022-08-04T15:31:11.708Z,1.48
2022-08-04T15:32:31.168Z,1.75
2022-08-04T15:33:34.368Z,1.83
2022-08-04T15:37:07.037Z,1.65
2022-08-04T15:38:23.224Z,1.40
2022-08-04T15:39:44.117Z,1.48
2022-08-04T15:40:55.593Z,1.52
2022-08-04T15:42:03.768Z,1.60
2022-08-04T15:43:22.129Z,1.65
2022-08-04T15:44:24.082Z,1.40
2022-08-04T15:46:37.102Z,1.65
2022-08-04T15:46:51.336Z,1.50
2022-08-04T15:48:05.703Z,1.77
2022-08-04T15:49:20.627Z,2.05
2022-08-04T15:50:27.989Z,2.50
2022-08-04T15:51:32.955Z,1.40
2022-08-04T15:53:00.729Z,2.00
2022-08-04T15:54:16.853Z,1.73
2022-08-04T15:55:39.171Z,1.42
2022-08-04T15:57:02.702Z,1.60
2022-08-04T15:58:16.295Z,1.50
2022-08-04T16:00:00.658Z,1.33
2022-08-04T16:01:02.903Z,1.50
2022-08-04T16:02:30.713Z,1.40
2022-08-04T16:03:58.717Z,1.98
2022-08-04T16:05:20.636Z,1.25
2022-08-04T16:06:22.793Z,1.48
2022-08-04T16:07:53.632Z,1.90
2022-08-04T16:09:00.809Z,1.50
2022-08-04T16:10:31.630Z,1.35
2022-08-04T16:11:35.190Z,2.03
2022-08-04T16:12:55.891Z,1.77
2022-08-04T16:14:01.777Z,1.60
2022-08-04T16:15:39.006Z,1.58
2022-08-04T16:16:45.301Z,1.83
2022-08-04T16:17:47.447Z,1.38
2022-08-04T16:18:49.813Z,1.48
2022-08-04T16:20:18.393Z,1.70
2022-08-04T16:21:25.566Z,1.55
2022-08-04T16:22:39.812Z,1.48
2022-08-04T16:24:22.781Z,1.90
2022-08-04T16:25:46.449Z,1.50
2022-08-04T16:26:56.537Z,1.70
2022-08-04T16:27:59.048Z,1.83
2022-08-04T16:29:01.311Z,1.77
2022-08-04T16:30:07.544Z,1.40
2022-08-04T16:31:18.683Z,1.70
2022-08-04T16:32:26.603Z,1.70
2022-08-04T16:33:43.763Z,1.65
2022-08-04T16:35:00.399Z,1.80
2022-08-04T16:36:08.098Z,1.73